Time;durP1;ratioP1;P1;durP2;ratioP2;P2;SDS_P1;SDS_P2;PMS_P1;PMS_P2;Temp;Humidity;BMP_temperature;BMP_pressure;BME280_temperature;BME280_humidity;BME280_pressure;Samples;Min_cycle;Max_cycle;Signal;HPM_P1;HPM_P2
2021/09/01 00:00:22;;;;;;;16.23;7.72;;;;;;;;;;6182541;23;20214;-91
2021/09/01 00:03:27;;;;;;;14.18;7.50;;;;;;;;;;6183398;23;20167;-91
2021/09/01 00:06:32;;;;;;;15.13;6.88;;;;;;;;;;6185905;23;20164;-89
2021/09/01 00:09:39;;;;;;;14.00;7.82;;;;;;;;;;6201480;23;20494;-90
2021/09/01 00:12:44;;;;;;;14.55;7.68;;;;;;;;;;6182530;23;20171;-91
2021/09/01 00:15:50;;;;;;;13.27;7.75;;;;;;;;;;6182028;23;20266;-91
2021/09/01 00:18:55;;;;;;;15.57;7.88;;;;;;;;;;6183859;23;20159;-91
2021/09/01 00:22:01;;;;;;;20.17;8.07;;;;;;;;;;6182504;23;20175;-87
2021/09/01 00:25:09;;;;;;;13.77;7.47;;;;;;;;;;6182960;23;20171;-88
2021/09/01 00:28:14;;;;;;;18.92;8.20;;;;;;;;;;6200777;23;20245;-88
2021/09/01 00:31:20;;;;;;;15.95;7.50;;;;;;;;;;6184403;23;20201;-88
2021/09/01 00:34:25;;;;;;;16.77;8.65;;;;;;;;;;6183902;23;20175;-89
2021/09/01 00:37:30;;;;;;;24.40;9.07;;;;;;;;;;6183772;23;20199;-89
2021/09/01 00:40:36;;;;;;;18.27;8.98;;;;;;;;;;6184250;23;20160;-90
2021/09/01 00:43:41;;;;;;;15.82;8.57;;;;;;;;;;6185752;23;20184;-88
2021/09/01 00:46:47;;;;;;;15.75;8.75;;;;;;;;;;6202237;23;20184;-92
2021/09/01 00:49:52;;;;;;;14.45;7.63;;;;;;;;;;6183859;23;20168;-89
2021/09/01 00:52:58;;;;;;;20.52;9.10;;;;;;;;;;6182867;23;20172;-89
2021/09/01 00:56:04;;;;;;;15.90;9.18;;;;;;;;;;6183650;23;20195;-90
2021/09/01 00:59:13;;;;;;;17.10;8.20;;;;;;;;;;6184331;23;20689;-89
2021/09/01 01:02:18;;;;;;;14.65;8.25;;;;;;;;;;6184749;23;20188;-89
2021/09/01 01:05:23;;;;;;;18.05;9.15;;;;;;;;;;6184120;23;20214;-89
2021/09/01 01:08:28;;;;;;;16.27;8.32;;;;;;;;;;6183685;23;20176;-90
2021/09/01 01:11:35;;;;;;;15.15;8.27;;;;;;;;;;6183442;23;20236;-89
2021/09/01 01:14:41;;;;;;;17.23;8.65;;;;;;;;;;6183329;23;20183;-89
2021/09/01 01:17:47;;;;;;;18.63;9.13;;;;;;;;;;6185035;23;20216;-91
2021/09/01 01:20:55;;;;;;;15.63;8.38;;;;;;;;;;6183040;23;20243;-89
2021/09/01 01:24:01;;;;;;;14.82;8.05;;;;;;;;;;6183801;23;20233;-89
2021/09/01 01:27:18;;;;;;;14.63;8.40;;;;;;;;;;6183522;23;20183;-91
2021/09/01 01:30:23;;;;;;;19.05;8.85;;;;;;;;;;6184365;23;20171;-91
2021/09/01 01:33:28;;;;;;;18.42;9.30;;;;;;;;;;6184427;23;20501;-90
2021/09/01 01:36:33;;;;;;;18.33;9.13;;;;;;;;;;6182175;23;20251;-88
2021/09/01 01:39:38;;;;;;;17.38;9.02;;;;;;;;;;6184282;23;20159;-89
2021/09/01 01:42:45;;;;;;;17.67;9.77;;;;;;;;;;6183703;23;20212;-88
2021/09/01 01:45:50;;;;;;;18.00;8.70;;;;;;;;;;6181509;23;20172;-91
2021/09/01 01:48:58;;;;;;;15.60;8.68;;;;;;;;;;6183971;23;20168;-89
2021/09/01 01:52:03;;;;;;;15.82;8.93;;;;;;;;;;6183098;23;20175;-92
2021/09/01 01:55:11;;;;;;;16.50;8.95;;;;;;;;;;6182613;23;20174;-94
2021/09/01 01:58:17;;;;;;;22.02;8.77;;;;;;;;;;6181827;23;20179;-88
2021/09/01 02:01:23;;;;;;;15.73;8.70;;;;;;;;;;6182303;23;20638;-90
2021/09/01 02:04:28;;;;;;;21.63;8.93;;;;;;;;;;6182491;23;20171;-92
2021/09/01 02:07:33;;;;;;;16.20;8.98;;;;;;;;;;6182232;23;20215;-89
2021/09/01 02:10:39;;;;;;;19.98;9.60;;;;;;;;;;6181951;23;20172;-90
2021/09/01 02:13:46;;;;;;;18.88;10.50;;;;;;;;;;6180599;23;20176;-89
2021/09/01 02:16:51;;;;;;;18.88;10.07;;;;;;;;;;6181400;23;20519;-88
2021/09/01 02:19:56;;;;;;;20.25;9.63;;;;;;;;;;6181282;23;20247;-90
2021/09/01 02:23:01;;;;;;;16.58;8.65;;;;;;;;;;6182701;23;20204;-92
2021/09/01 02:26:06;;;;;;;18.67;8.10;;;;;;;;;;6181370;23;20171;-90
2021/09/01 02:29:12;;;;;;;16.65;9.05;;;;;;;;;;6181017;23;20171;-92
2021/09/01 02:32:18;;;;;;;17.83;8.43;;;;;;;;;;6182084;23;20164;-90
2021/09/01 02:35:23;;;;;;;18.38;8.65;;;;;;;;;;6180278;23;20262;-88
2021/09/01 02:38:29;;;;;;;17.02;9.02;;;;;;;;;;6181719;23;20172;-89
2021/09/01 02:41:34;;;;;;;16.02;8.38;;;;;;;;;;6179755;23;20307;-92
2021/09/01 02:44:40;;;;;;;13.45;7.90;;;;;;;;;;6180995;23;20171;-90
2021/09/01 02:47:45;;;;;;;15.93;8.20;;;;;;;;;;6180287;23;20267;-90
2021/09/01 02:50:52;;;;;;;16.60;8.32;;;;;;;;;;6180398;23;20163;-91
2021/09/01 02:53:57;;;;;;;13.23;7.85;;;;;;;;;;6181545;23;20172;-91
2021/09/01 02:57:03;;;;;;;16.70;8.50;;;;;;;;;;6185669;23;20203;-90
2021/09/01 03:00:10;;;;;;;15.60;9.05;;;;;;;;;;6183158;23;20172;-91
2021/09/01 03:03:16;;;;;;;16.15;8.65;;;;;;;;;;6180081;23;20175;-90
2021/09/01 03:06:21;;;;;;;19.00;9.23;;;;;;;;;;6181691;23;20231;-89
2021/09/01 03:09:26;;;;;;;17.90;10.13;;;;;;;;;;6181483;23;20176;-89
2021/09/01 03:12:31;;;;;;;21.10;10.25;;;;;;;;;;6181842;23;20176;-91
2021/09/01 03:15:37;;;;;;;27.27;10.18;;;;;;;;;;6180159;23;20215;-88
2021/09/01 03:18:42;;;;;;;23.45;10.95;;;;;;;;;;6179965;23;20172;-91
2021/09/01 03:21:49;;;;;;;21.48;10.85;;;;;;;;;;6180350;23;20230;-93
2021/09/01 03:24:54;;;;;;;25.02;11.57;;;;;;;;;;6181236;23;20171;-88
2021/09/01 03:28:00;;;;;;;21.23;10.25;;;;;;;;;;6183035;23;20175;-90
2021/09/01 03:31:06;;;;;;;26.30;12.20;;;;;;;;;;6179399;23;20231;-90
2021/09/01 03:34:11;;;;;;;21.52;11.68;;;;;;;;;;6183016;23;20228;-90
2021/09/01 03:37:17;;;;;;;18.60;10.45;;;;;;;;;;6169121;23;20196;-90
2021/09/01 03:40:22;;;;;;;18.90;10.75;;;;;;;;;;6169473;23;20176;-91
2021/09/01 03:43:27;;;;;;;18.52;10.50;;;;;;;;;;6169004;23;20172;-89
2021/09/01 03:46:34;;;;;;;25.05;11.80;;;;;;;;;;6168516;23;20181;-91
2021/09/01 03:49:39;;;;;;;20.75;10.50;;;;;;;;;;6165916;23;20160;-90
2021/09/01 03:52:44;;;;;;;18.85;10.90;;;;;;;;;;6167429;23;20164;-91
2021/09/01 03:55:50;;;;;;;19.90;10.90;;;;;;;;;;6166593;23;20236;-91
2021/09/01 03:58:55;;;;;;;20.27;10.90;;;;;;;;;;6165275;23;20164;-90
2021/09/01 04:02:19;;;;;;;21.08;10.75;;;;;;;;;;6165598;23;20152;-90
2021/09/01 04:05:26;;;;;;;16.50;9.07;;;;;;;;;;6169200;23;20169;-90
2021/09/01 04:08:45;;;;;;;16.17;8.98;;;;;;;;;;6167443;23;20193;-90
2021/09/01 04:11:50;;;;;;;15.60;9.43;;;;;;;;;;6167561;23;20208;-90
2021/09/01 04:14:55;;;;;;;20.33;11.13;;;;;;;;;;6167993;23;20172;-91
2021/09/01 04:18:00;;;;;;;22.67;11.63;;;;;;;;;;6169573;23;20172;-90
2021/09/01 04:21:06;;;;;;;19.70;11.15;;;;;;;;;;6169442;23;20209;-89
2021/09/01 04:24:11;;;;;;;24.17;12.27;;;;;;;;;;6170023;23;20177;-90
2021/09/01 04:27:16;;;;;;;19.05;11.95;;;;;;;;;;6169221;23;20264;-90
2021/09/01 04:30:22;;;;;;;23.52;13.35;;;;;;;;;;6167588;23;20180;-91
2021/09/01 04:33:26;;;;;;;24.00;12.82;;;;;;;;;;6168121;23;20156;-88
2021/09/01 04:36:33;;;;;;;22.88;12.77;;;;;;;;;;6179343;23;20207;-91
2021/09/01 04:39:38;;;;;;;20.23;12.23;;;;;;;;;;6180333;23;20172;-91
2021/09/01 04:42:44;;;;;;;21.92;12.60;;;;;;;;;;6182279;23;20612;-89
2021/09/01 04:45:49;;;;;;;23.33;13.45;;;;;;;;;;6183761;23;20215;-90
2021/09/01 04:48:54;;;;;;;25.77;13.63;;;;;;;;;;6183660;23;20164;-90
2021/09/01 04:52:01;;;;;;;24.02;14.27;;;;;;;;;;6183572;23;20236;-91
2021/09/01 04:55:06;;;;;;;25.38;12.63;;;;;;;;;;6179996;23;20507;-89
2021/09/01 04:58:12;;;;;;;22.40;13.38;;;;;;;;;;6179878;23;20218;-90
2021/09/01 05:01:16;;;;;;;27.13;12.90;;;;;;;;;;6179379;23;20183;-91
2021/09/01 05:04:21;;;;;;;25.25;13.65;;;;;;;;;;6197339;23;20172;-89
2021/09/01 05:07:28;;;;;;;28.05;13.15;;;;;;;;;;6178061;23;20164;-88
2021/09/01 05:10:32;;;;;;;22.08;13.60;;;;;;;;;;6180949;23;20168;-89
2021/09/01 05:13:37;;;;;;;24.45;13.10;;;;;;;;;;6181348;23;20373;-91
2021/09/01 05:16:43;;;;;;;24.88;12.45;;;;;;;;;;6182209;23;20191;-92
2021/09/01 05:19:48;;;;;;;26.52;13.35;;;;;;;;;;6184704;23;20203;-89
2021/09/01 05:22:57;;;;;;;23.65;12.40;;;;;;;;;;6198975;23;20172;-92
2021/09/01 05:26:02;;;;;;;28.38;12.90;;;;;;;;;;6181835;23;20164;-92
2021/09/01 05:29:07;;;;;;;23.42;13.20;;;;;;;;;;6180875;23;20192;-89
2021/09/01 05:32:14;;;;;;;21.88;12.60;;;;;;;;;;6183210;23;20183;-89
2021/09/01 05:35:20;;;;;;;26.60;12.23;;;;;;;;;;6179817;23;20168;-90
2021/09/01 05:38:26;;;;;;;25.05;13.52;;;;;;;;;;6184048;23;20168;-89
2021/09/01 05:41:31;;;;;;;21.70;12.43;;;;;;;;;;6183297;23;20167;-91
2021/09/01 05:44:37;;;;;;;28.33;13.20;;;;;;;;;;6183317;23;20631;-92
2021/09/01 05:47:45;;;;;;;22.00;11.30;;;;;;;;;;6181401;23;20168;-91
2021/09/01 05:50:53;;;;;;;23.17;11.93;;;;;;;;;;6182953;23;20187;-92
2021/09/01 05:53:59;;;;;;;21.02;12.30;;;;;;;;;;6184416;23;20180;-91
2021/09/01 05:57:09;;;;;;;18.75;12.07;;;;;;;;;;6182763;23;20195;-88
2021/09/01 06:00:15;;;;;;;20.88;12.27;;;;;;;;;;6182663;23;20163;-91
2021/09/01 06:03:24;;;;;;;24.15;11.40;;;;;;;;;;6183941;23;20168;-91
2021/09/01 06:06:29;;;;;;;19.73;11.43;;;;;;;;;;6184136;23;20188;-92
2021/09/01 06:09:36;;;;;;;19.48;11.57;;;;;;;;;;6187446;23;20172;-89
2021/09/01 06:12:43;;;;;;;21.08;11.50;;;;;;;;;;6184276;23;20168;-90
2021/09/01 06:15:55;;;;;;;19.80;11.98;;;;;;;;;;6184449;23;20280;-90
2021/09/01 06:19:01;;;;;;;22.55;12.35;;;;;;;;;;6182681;23;20168;-90
2021/09/01 06:22:06;;;;;;;25.77;12.75;;;;;;;;;;6181476;23;20226;-89
2021/09/01 06:25:13;;;;;;;24.02;12.27;;;;;;;;;;6181923;23;20155;-90
2021/09/01 06:28:18;;;;;;;21.10;11.68;;;;;;;;;;6184702;23;20171;-90
2021/09/01 06:31:24;;;;;;;20.02;11.25;;;;;;;;;;6188183;23;20211;-89
2021/09/01 06:34:29;;;;;;;21.52;11.45;;;;;;;;;;6183758;23;20171;-89
2021/09/01 06:37:34;;;;;;;17.70;10.93;;;;;;;;;;6171482;23;20291;-89
2021/09/01 06:40:40;;;;;;;18.27;11.02;;;;;;;;;;6171760;23;20176;-89
2021/09/01 06:43:45;;;;;;;21.92;11.65;;;;;;;;;;6172584;23;20239;-91
2021/09/01 06:46:51;;;;;;;18.20;11.07;;;;;;;;;;6170618;23;20172;-91
2021/09/01 06:49:57;;;;;;;20.58;12.30;;;;;;;;;;6174701;23;20392;-90
2021/09/01 06:56:30;;;;;;;21.80;10.82;;;;;;;;;;6174870;23;20500;-89
2021/09/01 07:12:59;;;;;;;18.48;10.07;;;;;;;;;;6174612;23;20196;-90
2021/09/01 07:16:17;;;;;;;21.10;10.63;;;;;;;;;;6175479;23;20232;-88
2021/09/01 07:19:26;;;;;;;20.40;10.93;;;;;;;;;;6174842;23;20177;-89
2021/09/01 07:22:37;;;;;;;22.73;11.13;;;;;;;;;;6176476;23;20168;-91
2021/09/01 07:25:42;;;;;;;16.65;10.43;;;;;;;;;;6175050;23;20173;-91
2021/09/01 07:28:58;;;;;;;24.65;10.98;;;;;;;;;;6176551;23;20173;-92
2021/09/01 07:32:04;;;;;;;18.25;10.32;;;;;;;;;;6175262;23;20230;-92
2021/09/01 07:35:10;;;;;;;20.45;10.43;;;;;;;;;;6174969;23;20189;-91
2021/09/01 07:38:17;;;;;;;18.35;9.13;;;;;;;;;;6175676;23;20216;-91
2021/09/01 07:41:23;;;;;;;17.02;9.30;;;;;;;;;;6173492;23;20173;-92
2021/09/01 07:44:30;;;;;;;14.50;8.48;;;;;;;;;;6174399;23;20151;-91
2021/09/01 07:47:35;;;;;;;13.75;8.98;;;;;;;;;;6170974;23;20176;-93
2021/09/01 07:50:45;;;;;;;12.38;8.32;;;;;;;;;;6172070;23;20176;-92
2021/09/01 07:53:51;;;;;;;15.00;8.70;;;;;;;;;;6173026;23;20161;-92
2021/09/01 07:57:03;;;;;;;13.57;9.02;;;;;;;;;;6173868;23;20217;-91
2021/09/01 08:03:41;;;;;;;11.88;7.75;;;;;;;;;;6175290;23;20168;-92
2021/09/01 08:10:09;;;;;;;11.10;7.55;;;;;;;;;;6174717;23;20188;-91
2021/09/01 08:16:49;;;;;;;11.38;7.32;;;;;;;;;;6176601;23;20217;-92
2021/09/01 08:19:57;;;;;;;10.77;6.75;;;;;;;;;;6175190;23;20191;-91
2021/09/01 14:47:22;;;;;;;4.88;3.13;;;;;;;;;;6132468;23;20583;-90
2021/09/01 14:50:35;;;;;;;5.60;3.40;;;;;;;;;;6186804;23;20215;-90
2021/09/01 14:53:52;;;;;;;5.10;3.40;;;;;;;;;;6188024;23;20188;-91
2021/09/01 15:00:17;;;;;;;7.93;3.67;;;;;;;;;;6186798;23;20166;-92
2021/09/01 15:03:24;;;;;;;5.90;3.20;;;;;;;;;;6186621;23;20150;-89
2021/09/01 15:06:29;;;;;;;5.60;3.15;;;;;;;;;;6185896;23;20171;-89
2021/09/01 15:09:35;;;;;;;6.80;3.80;;;;;;;;;;6167508;23;20183;-92
2021/09/01 15:12:41;;;;;;;6.00;2.97;;;;;;;;;;6183191;23;20171;-90
2021/09/01 15:15:49;;;;;;;6.60;3.50;;;;;;;;;;6183449;23;20187;-90
2021/09/01 15:18:55;;;;;;;8.45;3.58;;;;;;;;;;6180340;23;20192;-91
2021/09/01 15:22:00;;;;;;;7.30;3.50;;;;;;;;;;6180892;23;20300;-91
2021/09/01 15:25:06;;;;;;;8.13;3.78;;;;;;;;;;6180890;23;20171;-88
2021/09/01 15:28:12;;;;;;;7.18;3.22;;;;;;;;;;6180978;23;20506;-89
2021/09/01 15:31:17;;;;;;;5.88;3.30;;;;;;;;;;6181850;23;20179;-93
2021/09/01 15:34:25;;;;;;;6.85;3.80;;;;;;;;;;6180456;23;20634;-93
2021/09/01 15:37:31;;;;;;;8.43;3.67;;;;;;;;;;6182766;23;20261;-89
2021/09/01 15:40:39;;;;;;;5.28;3.42;;;;;;;;;;6181640;23;20171;-88
2021/09/01 15:43:44;;;;;;;7.47;3.45;;;;;;;;;;6181654;23;20243;-90
2021/09/01 15:46:54;;;;;;;6.82;3.63;;;;;;;;;;6181573;23;20171;-89
2021/09/01 15:50:01;;;;;;;4.88;3.10;;;;;;;;;;6180142;23;20263;-88
2021/09/01 15:53:10;;;;;;;7.78;4.00;;;;;;;;;;6180634;23;20561;-85
2021/09/01 15:56:19;;;;;;;8.90;3.88;;;;;;;;;;6180800;23;20211;-86
2021/09/01 15:59:25;;;;;;;5.22;3.58;;;;;;;;;;6186229;23;20203;-89
2021/09/01 16:02:30;;;;;;;6.30;3.88;;;;;;;;;;6184995;23;20168;-89
2021/09/01 16:05:39;;;;;;;4.50;3.15;;;;;;;;;;6187442;23;20179;-87
2021/09/01 16:08:44;;;;;;;6.90;3.65;;;;;;;;;;6185336;23;20172;-90
2021/09/01 16:11:51;;;;;;;5.03;3.13;;;;;;;;;;6186594;23;20168;-92
2021/09/01 16:15:01;;;;;;;5.97;3.30;;;;;;;;;;6188374;23;20619;-90
2021/09/01 19:52:19;;;;;;;12.48;5.57;;;;;;;;;;6188175;23;20635;-92
2021/09/01 19:55:26;;;;;;;13.10;5.20;;;;;;;;;;6187199;23;20151;-91
2021/09/01 19:58:34;;;;;;;12.30;5.05;;;;;;;;;;6188576;23;20192;-91
2021/09/01 20:01:39;;;;;;;9.55;4.90;;;;;;;;;;6188768;23;20219;-91
2021/09/01 20:04:44;;;;;;;14.32;6.50;;;;;;;;;;6185696;23;20164;-91
2021/09/01 20:07:51;;;;;;;12.32;5.32;;;;;;;;;;6184937;23;20171;-92
2021/09/01 20:10:57;;;;;;;13.85;5.93;;;;;;;;;;6186465;23;20658;-89
2021/09/01 20:14:03;;;;;;;10.35;4.70;;;;;;;;;;6186413;23;20168;-89
2021/09/01 20:20:31;;;;;;;9.63;4.93;;;;;;;;;;6190073;23;20196;-90
2021/09/01 22:00:26;;;;;;;14.52;5.93;;;;;;;;;;6133932;23;20525;-90
2021/09/01 22:03:40;;;;;;;9.70;5.05;;;;;;;;;;6183043;23;20184;-91
2021/09/01 22:06:45;;;;;;;10.77;4.88;;;;;;;;;;6182430;23;20224;-90
2021/09/01 22:09:50;;;;;;;13.18;5.28;;;;;;;;;;6182054;23;20214;-92
2021/09/01 22:12:57;;;;;;;11.45;5.30;;;;;;;;;;6182132;23;20172;-93
2021/09/01 22:16:04;;;;;;;11.05;5.10;;;;;;;;;;6181158;23;20176;-91
2021/09/01 22:19:09;;;;;;;8.98;4.93;;;;;;;;;;6180590;23;20194;-92
2021/09/01 22:22:14;;;;;;;16.50;5.35;;;;;;;;;;6180694;23;20167;-90
2021/09/01 22:25:20;;;;;;;13.57;4.78;;;;;;;;;;6180895;23;20172;-90
2021/09/01 22:28:25;;;;;;;9.95;5.15;;;;;;;;;;6179796;23;20196;-91
2021/09/01 22:31:32;;;;;;;12.35;4.85;;;;;;;;;;6179906;23;20172;-90
2021/09/01 22:34:37;;;;;;;10.68;4.82;;;;;;;;;;6181941;23;20175;-92
2021/09/01 22:37:42;;;;;;;9.48;5.07;;;;;;;;;;6180244;23;20172;-93
2021/09/01 22:40:48;;;;;;;12.95;5.55;;;;;;;;;;6185918;23;20207;-92
2021/09/01 22:43:54;;;;;;;10.13;5.22;;;;;;;;;;6190049;23;20151;-92
2021/09/01 22:47:01;;;;;;;8.63;5.22;;;;;;;;;;6188566;23;20211;-91
2021/09/01 22:50:07;;;;;;;12.70;4.85;;;;;;;;;;6181043;23;20221;-90
2021/09/01 22:53:13;;;;;;;10.13;5.22;;;;;;;;;;6181467;23;20176;-90
2021/09/01 22:56:18;;;;;;;11.45;5.35;;;;;;;;;;6181904;23;20223;-91
2021/09/01 22:59:23;;;;;;;10.68;5.22;;;;;;;;;;6180337;23;20231;-90
2021/09/01 23:02:29;;;;;;;8.70;4.80;;;;;;;;;;6168023;23;20219;-92
2021/09/01 23:05:34;;;;;;;10.52;5.07;;;;;;;;;;6167266;23;20172;-91
2021/09/01 23:08:39;;;;;;;12.25;5.82;;;;;;;;;;6168004;23;20161;-91
2021/09/01 23:11:45;;;;;;;12.93;4.90;;;;;;;;;;6169613;23;20623;-90
2021/09/01 23:14:50;;;;;;;11.18;5.60;;;;;;;;;;6169707;23;20173;-91
2021/09/01 23:18:00;;;;;;;11.55;5.82;;;;;;;;;;6169282;23;20212;-90
2021/09/01 23:21:05;;;;;;;12.25;5.70;;;;;;;;;;6168353;23;20157;-91
2021/09/01 23:24:11;;;;;;;9.57;5.57;;;;;;;;;;6168873;23;20184;-91
2021/09/01 23:27:16;;;;;;;12.77;5.28;;;;;;;;;;6169902;23;20243;-91
2021/09/01 23:30:22;;;;;;;16.63;5.63;;;;;;;;;;6170313;23;20168;-92
2021/09/01 23:33:28;;;;;;;10.82;6.15;;;;;;;;;;6168720;23;20164;-90
2021/09/01 23:36:33;;;;;;;19.35;6.20;;;;;;;;;;6167373;23;20169;-91
2021/09/01 23:39:39;;;;;;;16.77;6.28;;;;;;;;;;6166618;23;20182;-92
2021/09/01 23:42:44;;;;;;;14.77;5.97;;;;;;;;;;6168199;23;20177;-90
2021/09/01 23:45:49;;;;;;;12.43;5.40;;;;;;;;;;6167821;23;20168;-91
2021/09/01 23:48:56;;;;;;;11.60;6.07;;;;;;;;;;6169237;23;20208;-91
2021/09/01 23:52:01;;;;;;;12.73;6.35;;;;;;;;;;6168347;23;20173;-92
2021/09/01 23:55:07;;;;;;;11.50;5.82;;;;;;;;;;6167122;23;20172;-91
2021/09/01 23:58:12;;;;;;;22.13;6.65;;;;;;;;;;6166799;23;20241;-92
